Time;durP1;ratioP1;P1;durP2;ratioP2;P2;SDS_P1;SDS_P2;PMS_P1;PMS_P2;Temp;Humidity;BMP_temperature;BMP_pressure;BME280_temperature;BME280_humidity;BME280_pressure;Samples;Min_cycle;Max_cycle;Signal;HPM_P1;HPM_P2
2022/10/13 00:01:16;;;;;;;0.60;0.60;;;9.20;99.90;;;;;;5028180;28;20021;-70
2022/10/13 00:03:45;;;;;;;0.30;0.30;;;10.80;99.90;;;;;;5028102;28;20026;-73
2022/10/13 00:06:13;;;;;;;0.70;0.70;;;9.20;99.90;;;;;;5026109;28;20072;-71
2022/10/13 00:08:39;;;;;;;0.70;0.70;;;9.20;99.90;;;;;;5027738;28;20044;-72
2022/10/13 00:11:09;;;;;;;1.85;1.00;;;9.20;99.90;;;;;;5029482;28;20030;-71
2022/10/13 00:13:35;;;;;;;0.82;0.82;;;9.10;99.90;;;;;;5028988;28;20381;-72
2022/10/13 00:16:01;;;;;;;0.43;0.43;;;9.10;99.90;;;;;;5028025;28;20032;-70
2022/10/13 00:18:27;;;;;;;1.33;1.15;;;9.10;99.90;;;;;;5028069;28;20404;-72
2022/10/13 00:20:53;;;;;;;1.67;1.57;;;9.10;99.90;;;;;;5028395;28;20069;-71
2022/10/13 00:23:18;;;;;;;0.80;0.80;;;9.10;99.90;;;;;;5030297;28;20392;-71
2022/10/13 00:25:46;;;;;;;1.30;1.17;;;9.10;99.90;;;;;;5031937;28;20033;-70
2022/10/13 00:28:13;;;;;;;0.63;0.63;;;9.10;99.90;;;;;;5031329;28;20037;-71
2022/10/13 00:30:40;;;;;;;1.50;1.40;;;9.10;99.90;;;;;;5031790;28;20025;-71
2022/10/13 00:33:06;;;;;;;0.52;0.52;;;9.10;99.90;;;;;;5030983;28;20030;-71
2022/10/13 00:35:33;;;;;;;0.40;0.40;;;9.10;99.90;;;;;;5029864;28;20404;-72
2022/10/13 00:37:59;;;;;;;0.50;0.50;;;9.10;99.90;;;;;;5031077;28;20514;-72
2022/10/13 00:40:24;;;;;;;0.83;0.83;;;9.10;99.90;;;;;;5031779;28;20034;-72
2022/10/13 00:42:50;;;;;;;1.03;1.03;;;9.20;99.90;;;;;;5030328;28;20029;-71
2022/10/13 00:45:28;;;;;;;0.40;0.40;;;9.00;99.90;;;;;;5030778;28;20037;-72
2022/10/13 00:47:57;;;;;;;2.33;0.80;;;9.10;99.90;;;;;;5029153;28;20099;-71
2022/10/13 00:50:28;;;;;;;0.30;0.30;;;9.10;99.90;;;;;;5031415;28;20033;-72
2022/10/13 00:52:56;;;;;;;0.82;0.82;;;9.20;99.90;;;;;;5032173;28;20030;-71
2022/10/13 00:55:25;;;;;;;0.30;0.30;;;9.00;99.90;;;;;;5029969;28;20029;-71
2022/10/13 00:57:55;;;;;;;0.30;0.30;;;9.10;99.90;;;;;;5029862;28;20556;-71
2022/10/13 01:00:22;;;;;;;0.63;0.63;;;9.10;99.90;;;;;;5031107;28;20111;-71
2022/10/13 01:02:47;;;;;;;1.33;1.20;;;9.10;99.90;;;;;;5030801;28;20483;-72
2022/10/13 01:05:14;;;;;;;0.97;0.97;;;9.20;99.90;;;;;;5028810;28;20025;-73
2022/10/13 01:07:39;;;;;;;2.45;1.88;;;9.20;99.90;;;;;;5030187;28;20041;-72
2022/10/13 01:10:06;;;;;;;6.73;1.23;;;9.20;99.90;;;;;;5030458;28;20537;-70
2022/10/13 01:12:46;;;;;;;0.30;0.30;;;9.40;99.90;;;;;;5031666;28;20029;-72
2022/10/13 01:15:18;;;;;;;0.85;0.85;;;9.20;99.90;;;;;;5030185;28;20029;-72
2022/10/13 01:18:05;;;;;;;0.43;0.43;;;9.20;99.90;;;;;;5030384;28;20479;-74
2022/10/13 01:20:44;;;;;;;0.32;0.32;;;9.20;99.90;;;;;;5028135;28;20457;-72
2022/10/13 01:23:43;;;;;;;1.58;1.30;;;9.30;99.90;;;;;;5029163;28;20045;-72
2022/10/13 01:26:46;;;;;;;1.85;1.38;;;9.30;99.90;;;;;;5029521;28;20029;-71
2022/10/13 01:29:53;;;;;;;1.45;1.02;;;9.30;99.90;;;;;;5029543;28;20116;-71
2022/10/13 01:32:43;;;;;;;0.68;0.68;;;9.30;99.90;;;;;;5031196;28;20053;-72
2022/10/13 01:35:34;;;;;;;11.05;1.35;;;9.30;99.90;;;;;;5029353;28;20493;-72
2022/10/13 01:38:27;;;;;;;0.73;0.73;;;9.30;99.90;;;;;;5030191;28;20037;-71
2022/10/13 01:41:20;;;;;;;5.07;2.35;;;9.30;99.90;;;;;;5030661;28;20098;-72
2022/10/13 01:44:08;;;;;;;1.25;1.15;;;9.30;99.90;;;;;;5029982;28;20079;-69
2022/10/13 01:46:37;;;;;;;0.95;0.95;;;9.30;99.90;;;;;;5027834;28;20088;-70
2022/10/13 01:49:07;;;;;;;0.40;0.40;;;9.30;99.90;;;;;;5028920;28;20037;-71
2022/10/13 01:51:33;;;;;;;0.80;0.80;;;9.30;99.90;;;;;;5029673;28;20033;-72
2022/10/13 01:53:59;;;;;;;;;;;9.30;99.90;;;;;;5029627;28;20034;-71
2022/10/13 01:56:25;;;;;;;2.20;1.73;;;9.30;99.90;;;;;;5029928;28;20315;-72
2022/10/13 01:58:51;;;;;;;1.03;1.03;;;9.30;99.90;;;;;;5027321;28;20033;-71
2022/10/13 02:01:47;;;;;;;0.82;0.73;;;9.30;99.90;;;;;;5030695;28;20084;-70
2022/10/13 02:04:18;;;;;;;0.80;0.80;;;9.30;99.90;;;;;;5029949;28;20029;-72
2022/10/13 02:06:51;;;;;;;0.73;0.73;;;9.30;99.90;;;;;;5026540;28;20530;-72
2022/10/13 02:09:30;;;;;;;0.60;0.60;;;9.30;99.90;;;;;;5031386;28;20026;-71
2022/10/13 02:12:05;;;;;;;1.60;1.50;;;9.30;99.90;;;;;;5030612;28;20756;-73
2022/10/13 02:14:33;;;;;;;3.50;1.92;;;9.30;99.90;;;;;;5030307;28;20019;-72
2022/10/13 02:17:02;;;;;;;1.90;1.73;;;9.30;99.90;;;;;;5029120;28;20369;-71
2022/10/13 02:19:29;;;;;;;2.42;0.70;;;9.10;99.90;;;;;;5029825;28;20073;-73
2022/10/13 02:21:56;;;;;;;1.52;1.42;;;9.30;99.90;;;;;;5030095;28;20029;-72
2022/10/13 02:24:22;;;;;;;0.90;0.90;;;9.30;99.90;;;;;;5028983;28;20065;-71
2022/10/13 02:26:50;;;;;;;1.80;1.70;;;9.30;99.90;;;;;;5028545;28;20079;-72
2022/10/13 02:29:16;;;;;;;12.07;1.50;;;9.30;99.90;;;;;;5026929;28;20092;-71
2022/10/13 02:31:43;;;;;;;0.68;0.63;;;9.30;99.90;;;;;;5028823;28;20025;-73
2022/10/13 02:34:09;;;;;;;;;;;9.30;99.90;;;;;;5029525;28;20025;-72
2022/10/13 02:36:36;;;;;;;1.38;1.05;;;9.30;99.90;;;;;;5031233;28;19909;-71
2022/10/13 02:39:02;;;;;;;0.68;0.68;;;9.30;99.90;;;;;;5028930;28;20033;-73
2022/10/13 02:41:28;;;;;;;0.82;0.82;;;9.30;99.90;;;;;;5029109;28;20056;-71
2022/10/13 02:43:53;;;;;;;1.40;1.37;;;9.30;99.90;;;;;;5028076;28;20029;-72
2022/10/13 02:46:19;;;;;;;0.80;0.80;;;9.30;99.90;;;;;;5028992;28;20559;-72
2022/10/13 02:48:45;;;;;;;2.10;1.90;;;9.30;99.90;;;;;;5028077;28;20531;-71
2022/10/13 02:51:10;;;;;;;1.40;1.30;;;9.30;99.90;;;;;;5028326;28;20113;-72
2022/10/13 02:53:37;;;;;;;0.70;0.70;;;;;;;;;;5028521;28;20032;-72
2022/10/13 02:56:02;;;;;;;1.75;1.67;;;9.20;99.90;;;;;;5032233;28;20025;-70
2022/10/13 02:58:28;;;;;;;0.50;0.50;;;9.20;99.90;;;;;;5030288;28;20041;-71
2022/10/13 03:00:54;;;;;;;0.87;0.87;;;9.30;99.90;;;;;;5028095;28;20037;-71
2022/10/13 03:03:19;;;;;;;0.47;0.47;;;9.20;99.90;;;;;;5030078;28;20056;-72
2022/10/13 03:05:45;;;;;;;0.70;0.70;;;;;;;;;;5025966;28;20030;-71
2022/10/13 03:08:11;;;;;;;0.88;0.88;;;9.30;99.90;;;;;;5028785;28;20544;-71
2022/10/13 03:10:37;;;;;;;0.53;0.53;;;9.30;99.90;;;;;;5028282;28;20120;-71
2022/10/13 03:13:02;;;;;;;4.00;1.60;;;9.70;99.90;;;;;;5029564;28;20038;-71
2022/10/13 03:15:28;;;;;;;1.40;1.23;;;9.30;99.90;;;;;;5027566;28;20030;-71
2022/10/13 03:17:53;;;;;;;22.07;1.23;;;9.10;99.90;;;;;;5027553;28;20482;-71
2022/10/13 03:20:19;;;;;;;0.57;0.57;;;9.30;99.90;;;;;;5027546;28;20432;-73
2022/10/13 03:22:44;;;;;;;0.93;0.93;;;9.30;99.90;;;;;;5028172;28;20033;-71
2022/10/13 03:25:10;;;;;;;1.10;0.70;;;8.90;99.90;;;;;;5027424;28;20172;-71
2022/10/13 03:27:36;;;;;;;0.50;0.50;;;9.50;99.90;;;;;;5026519;28;20107;-72
2022/10/13 03:30:02;;;;;;;0.63;0.63;;;8.90;99.90;;;;;;5015877;28;20171;-71
2022/10/13 03:32:30;;;;;;;0.85;0.85;;;9.20;99.90;;;;;;5029681;28;20029;-71
2022/10/13 03:34:55;;;;;;;0.60;0.60;;;9.20;99.90;;;;;;5027290;28;20064;-71
2022/10/13 03:37:21;;;;;;;1.03;0.80;;;9.30;99.90;;;;;;5027844;28;20450;-71
2022/10/13 03:39:47;;;;;;;1.07;0.97;;;8.80;99.90;;;;;;5026852;28;20049;-71
2022/10/13 03:42:12;;;;;;;0.90;0.90;;;;;;;;;;5029498;28;20038;-71
2022/10/13 03:44:38;;;;;;;0.70;0.70;;;9.40;99.90;;;;;;5028545;28;20508;-71
2022/10/13 03:47:04;;;;;;;0.53;0.53;;;9.00;99.90;;;;;;5029247;28;20049;-71
2022/10/13 03:49:29;;;;;;;1.17;1.10;;;9.60;99.90;;;;;;5027568;28;20036;-70
2022/10/13 03:51:55;;;;;;;0.40;0.40;;;8.90;99.90;;;;;;5028685;28;20087;-72
2022/10/13 03:54:20;;;;;;;0.83;0.83;;;9.80;99.90;;;;;;5027629;28;20037;-72
2022/10/13 03:56:46;;;;;;;0.67;0.67;;;9.00;99.90;;;;;;5029377;28;20033;-71
2022/10/13 03:59:12;;;;;;;1.33;1.23;;;8.90;99.90;;;;;;5032108;28;20099;-71
2022/10/13 04:01:38;;;;;;;0.50;0.50;;;9.30;99.90;;;;;;5030397;28;20600;-71
2022/10/13 04:04:06;;;;;;;0.47;0.47;;;9.20;99.90;;;;;;5031231;28;20128;-70
2022/10/13 04:06:31;;;;;;;0.70;0.70;;;9.30;99.90;;;;;;5030826;28;20044;-71
2022/10/13 04:08:57;;;;;;;1.07;1.07;;;;;;;;;;5030904;28;20029;-73
2022/10/13 04:11:23;;;;;;;7.38;2.10;;;;;;;;;;5031646;28;20520;-73
2022/10/13 04:13:49;;;;;;;0.40;0.40;;;9.10;99.90;;;;;;5032089;28;20506;-71
2022/10/13 04:16:24;;;;;;;0.40;0.40;;;8.60;99.90;;;;;;5030552;28;20263;-72
2022/10/13 04:18:57;;;;;;;0.30;0.30;;;9.30;99.90;;;;;;5032591;28;20445;-72
2022/10/13 04:21:24;;;;;;;1.25;1.15;;;9.30;99.90;;;;;;5032488;28;20500;-70
2022/10/13 04:23:50;;;;;;;0.40;0.40;;;;;;;;;;5029403;28;20064;-71
2022/10/13 04:26:17;;;;;;;0.50;0.50;;;9.70;99.90;;;;;;5030028;28;20069;-71
2022/10/13 04:28:46;;;;;;;0.70;0.70;;;9.50;99.90;;;;;;5031951;28;20080;-71
2022/10/13 04:31:12;;;;;;;1.88;1.40;;;;;;;;;;5030349;28;20041;-72
2022/10/13 04:33:37;;;;;;;1.80;1.70;;;8.90;99.90;;;;;;5031270;28;20381;-72
2022/10/13 04:36:08;;;;;;;0.93;0.93;;;9.70;99.90;;;;;;5030713;28;20034;-71
2022/10/13 04:38:34;;;;;;;0.50;0.50;;;;;;;;;;5031658;28;20056;-72
2022/10/13 04:41:04;;;;;;;0.57;0.57;;;9.20;99.90;;;;;;5029984;28;20119;-71
2022/10/13 04:43:31;;;;;;;0.52;0.52;;;8.90;99.90;;;;;;5030941;28;20041;-72
2022/10/13 04:46:04;;;;;;;1.13;1.10;;;9.60;99.90;;;;;;5012275;28;20054;-72
2022/10/13 04:48:30;;;;;;;1.10;0.95;;;9.10;99.90;;;;;;5024981;28;20096;-71
2022/10/13 04:51:05;;;;;;;1.30;1.23;;;9.10;99.90;;;;;;5030052;28;20373;-72
2022/10/13 04:53:31;;;;;;;1.85;1.75;;;9.00;99.90;;;;;;5029802;28;20026;-70
2022/10/13 04:56:01;;;;;;;0.70;0.70;;;9.00;99.90;;;;;;5030041;28;20048;-72
2022/10/13 04:58:27;;;;;;;0.68;0.68;;;9.60;99.90;;;;;;5012620;28;20037;-71
2022/10/13 05:00:53;;;;;;;1.80;0.90;;;;;;;;;;5027746;28;20133;-72
2022/10/13 05:03:19;;;;;;;0.53;0.53;;;;;;;;;;5031135;28;20072;-71
2022/10/13 05:05:45;;;;;;;0.60;0.60;;;9.30;99.90;;;;;;5029449;28;20037;-72
2022/10/13 05:08:11;;;;;;;1.50;1.33;;;;;;;;;;5030091;28;20067;-71
2022/10/13 05:10:37;;;;;;;0.95;0.95;;;;;;;;;;5028199;28;20087;-72
2022/10/13 05:13:02;;;;;;;0.80;0.80;;;9.00;99.90;;;;;;5030508;28;20351;-71
2022/10/13 05:15:28;;;;;;;2.30;2.10;;;9.80;99.90;;;;;;5029727;28;20271;-71
2022/10/13 05:17:54;;;;;;;0.77;0.77;;;;;;;;;;5031524;28;20489;-71
2022/10/13 05:20:19;;;;;;;0.70;0.70;;;9.80;99.90;;;;;;5030722;28;20025;-71
2022/10/13 05:22:46;;;;;;;0.77;0.77;;;;;;;;;;5030093;28;20029;-72
2022/10/13 05:25:11;;;;;;;1.03;1.00;;;9.90;99.90;;;;;;5029657;28;20404;-72
2022/10/13 05:27:37;;;;;;;0.80;0.80;;;;;;;;;;5027140;28;20286;-71
2022/10/13 05:30:03;;;;;;;1.60;0.90;;;8.90;99.90;;;;;;5030164;28;20495;-72
2022/10/13 05:32:29;;;;;;;0.50;0.50;;;9.30;99.90;;;;;;5030037;28;20496;-71
2022/10/13 05:34:54;;;;;;;0.40;0.40;;;9.50;99.90;;;;;;5030566;28;20062;-71
2022/10/13 05:37:21;;;;;;;0.53;0.53;;;;;;;;;;5027874;28;20503;-71
2022/10/13 05:39:47;;;;;;;1.73;1.60;;;9.20;99.90;;;;;;5029044;28;20021;-71
2022/10/13 05:42:13;;;;;;;0.83;0.80;;;;;;;;;;5029259;28;20056;-71
2022/10/13 05:44:39;;;;;;;0.93;0.88;;;9.50;99.90;;;;;;5030497;28;20461;-70
2022/10/13 05:47:04;;;;;;;1.87;1.73;;;10.00;99.90;;;;;;5030801;28;20041;-71
2022/10/13 05:49:30;;;;;;;1.10;1.10;;;9.50;99.90;;;;;;5028999;28;20029;-70
2022/10/13 05:52:00;;;;;;;1.23;1.13;;;10.30;99.90;;;;;;5029905;28;20560;-72
2022/10/13 05:54:49;;;;;;;1.27;1.17;;;9.90;99.90;;;;;;5031031;28;20072;-71
2022/10/13 05:57:29;;;;;;;1.20;1.13;;;9.80;99.90;;;;;;5027834;28;20034;-71
2022/10/13 06:00:03;;;;;;;1.38;1.27;;;9.60;99.90;;;;;;5019351;28;20555;-72
2022/10/13 06:02:33;;;;;;;9.85;1.83;;;9.80;99.90;;;;;;5029468;28;20489;-73
2022/10/13 06:05:01;;;;;;;1.27;1.27;;;10.20;99.90;;;;;;5029573;28;20131;-72
2022/10/13 06:07:29;;;;;;;0.90;0.90;;;9.70;99.90;;;;;;5029442;28;20096;-72
2022/10/13 06:09:56;;;;;;;0.95;0.95;;;9.50;99.90;;;;;;5030019;28;20026;-72
2022/10/13 06:12:23;;;;;;;0.60;0.60;;;;;;;;;;5030628;28;20033;-72
2022/10/13 06:14:48;;;;;;;0.98;0.98;;;10.20;99.90;;;;;;5028802;28;20478;-72
2022/10/13 06:17:14;;;;;;;3.07;1.80;;;10.20;99.90;;;;;;5028863;28;20104;-72
2022/10/13 06:19:39;;;;;;;9.57;1.30;;;9.80;99.90;;;;;;5029951;28;20418;-70
2022/10/13 06:22:06;;;;;;;0.63;0.63;;;10.30;99.90;;;;;;5029897;28;20113;-72
2022/10/13 06:24:31;;;;;;;0.40;0.40;;;9.50;99.90;;;;;;5029862;28;20109;-71
2022/10/13 06:26:57;;;;;;;1.97;1.80;;;9.70;99.90;;;;;;5028634;28;20116;-71
2022/10/13 06:29:22;;;;;;;0.57;0.57;;;10.50;99.90;;;;;;5027170;28;20050;-71
2022/10/13 06:31:48;;;;;;;10.10;2.30;;;;;;;;;;5029428;28;20022;-71
2022/10/13 06:34:14;;;;;;;1.23;1.10;;;10.60;99.90;;;;;;5028039;28;20057;-71
2022/10/13 06:36:41;;;;;;;0.80;0.80;;;;;;;;;;5030072;28;20100;-71
2022/10/13 06:39:07;;;;;;;1.67;1.48;;;10.30;99.90;;;;;;5028536;28;20030;-71
2022/10/13 06:41:33;;;;;;;0.93;0.90;;;10.60;99.90;;;;;;5030292;28;20025;-71
2022/10/13 06:43:58;;;;;;;3.40;1.87;;;10.30;99.90;;;;;;5027597;28;20029;-71
2022/10/13 06:46:26;;;;;;;0.68;0.68;;;;;;;;;;5027746;28;20103;-72
2022/10/13 06:48:52;;;;;;;1.00;0.97;;;;;;;;;;5029652;28;20041;-72
2022/10/13 06:51:18;;;;;;;2.43;2.23;;;10.80;99.90;;;;;;5028865;28;20055;-71
2022/10/13 06:53:46;;;;;;;0.40;0.40;;;10.40;99.90;;;;;;5027580;28;20025;-71
2022/10/13 06:56:11;;;;;;;1.48;1.38;;;10.80;99.90;;;;;;5028035;28;20091;-71
2022/10/13 06:58:37;;;;;;;2.90;1.23;;;10.90;99.90;;;;;;5030245;28;20037;-70
2022/10/13 07:01:04;;;;;;;0.67;0.67;;;11.20;99.90;;;;;;5026948;28;20121;-71
2022/10/13 07:03:30;;;;;;;0.50;0.50;;;;;;;;;;5028749;28;20029;-71
2022/10/13 07:06:00;;;;;;;1.50;1.47;;;10.80;99.90;;;;;;5027803;28;20060;-71
2022/10/13 07:08:26;;;;;;;4.05;3.75;;;10.90;99.90;;;;;;5028819;28;20583;-71
2022/10/13 07:10:52;;;;;;;5.00;2.30;;;;;;;;;;5029064;28;20028;-71
2022/10/13 07:13:17;;;;;;;1.70;1.60;;;10.80;99.90;;;;;;5045041;28;20060;-72
2022/10/13 07:15:43;;;;;;;1.63;1.43;;;10.90;99.90;;;;;;5027965;28;20033;-71
2022/10/13 07:18:08;;;;;;;1.13;1.03;;;11.40;99.90;;;;;;5028934;28;20032;-72
2022/10/13 07:20:34;;;;;;;8.27;1.23;;;11.20;99.90;;;;;;5027764;28;20132;-71
2022/10/13 07:23:00;;;;;;;1.67;1.17;;;;;;;;;;5029713;28;20034;-72
2022/10/13 07:25:26;;;;;;;2.60;1.27;;;10.40;99.90;;;;;;5028638;28;20041;-72
2022/10/13 07:27:52;;;;;;;0.53;0.53;;;;;;;;;;5027227;28;20286;-72
2022/10/13 07:30:18;;;;;;;0.57;0.57;;;;;;;;;;5027128;28;20030;-73
2022/10/13 07:32:44;;;;;;;1.07;1.07;;;;;;;;;;5031484;28;20033;-72
2022/10/13 07:35:10;;;;;;;1.02;1.02;;;10.60;99.90;;;;;;5031214;28;20033;-72
2022/10/13 07:37:37;;;;;;;1.08;1.08;;;11.20;99.90;;;;;;5032274;28;20049;-72
2022/10/13 07:40:06;;;;;;;0.45;0.45;;;10.60;99.90;;;;;;5031690;28;20060;-71
2022/10/13 07:42:32;;;;;;;0.70;0.70;;;;;;;;;;5031743;28;20041;-71
2022/10/13 07:44:58;;;;;;;2.37;1.60;;;10.80;99.90;;;;;;5031472;28;20741;-71
2022/10/13 07:47:24;;;;;;;0.50;0.50;;;11.20;99.90;;;;;;5031558;28;20041;-71
2022/10/13 07:49:50;;;;;;;1.53;1.40;;;;;;;;;;5031887;28;20033;-72
2022/10/13 07:52:16;;;;;;;6.07;2.22;;;;;;;;;;5032479;28;20109;-71
2022/10/13 07:54:42;;;;;;;0.97;0.97;;;;;;;;;;5032309;28;20520;-70
2022/10/13 07:57:08;;;;;;;1.90;1.47;;;;;;;;;;5030629;28;20038;-71
2022/10/13 07:59:34;;;;;;;2.65;1.88;;;;;;;;;;5030798;28;20067;-72
2022/10/13 08:02:00;;;;;;;1.88;1.67;;;11.70;99.90;;;;;;5031820;28;20033;-71
2022/10/13 08:04:33;;;;;;;0.95;0.95;;;11.30;99.90;;;;;;5032204;28;20427;-72
2022/10/13 08:06:59;;;;;;;6.45;1.33;;;;;;;;;;5031134;28;20037;-72
2022/10/13 08:09:25;;;;;;;1.10;1.10;;;11.80;99.90;;;;;;5030566;28;20029;-72
2022/10/13 08:11:51;;;;;;;0.80;0.80;;;;;;;;;;5032357;28;20358;-71
2022/10/13 08:14:17;;;;;;;1.20;1.13;;;11.50;99.90;;;;;;5032033;28;20461;-72
2022/10/13 08:16:44;;;;;;;0.60;0.60;;;12.40;99.90;;;;;;5031854;28;20293;-71
2022/10/13 08:19:12;;;;;;;1.05;1.05;;;11.90;99.90;;;;;;5030793;28;20025;-71
2022/10/13 08:21:38;;;;;;;3.95;3.65;;;;;;;;;;5032481;28;20036;-72
2022/10/13 08:24:05;;;;;;;2.17;2.00;;;12.20;99.90;;;;;;5030134;28;20033;-72
2022/10/13 08:26:30;;;;;;;1.88;1.08;;;12.10;99.90;;;;;;5027297;28;20450;-71
2022/10/13 08:28:56;;;;;;;1.17;0.87;;;;;;;;;;5019642;28;20080;-72
2022/10/13 08:31:22;;;;;;;0.43;0.43;;;12.10;99.90;;;;;;5031132;28;20038;-71
2022/10/13 08:33:51;;;;;;;0.83;0.83;;;12.10;99.90;;;;;;5029802;28;20092;-71
2022/10/13 08:36:17;;;;;;;1.02;0.98;;;;;;;;;;5031412;28;20317;-72
2022/10/13 08:38:43;;;;;;;4.78;1.48;;;12.10;99.90;;;;;;5031985;28;20037;-72
2022/10/13 08:41:22;;;;;;;0.88;0.88;;;12.20;99.90;;;;;;5032332;28;20090;-72
2022/10/13 08:43:51;;;;;;;2.60;1.55;;;12.90;99.90;;;;;;5030114;28;20030;-71
2022/10/13 08:46:48;;;;;;;1.77;1.60;;;12.20;99.90;;;;;;5031851;28;20108;-72
2022/10/13 08:49:15;;;;;;;2.58;1.80;;;12.20;99.90;;;;;;5032034;28;20041;-71
2022/10/13 08:51:41;;;;;;;0.95;0.95;;;11.80;99.90;;;;;;5029427;28;20108;-72
2022/10/13 08:54:07;;;;;;;0.93;0.93;;;11.90;99.90;;;;;;5030379;28;20041;-70
2022/10/13 08:56:34;;;;;;;1.00;0.97;;;12.20;99.90;;;;;;5031991;28;20037;-72
2022/10/13 08:59:02;;;;;;;1.08;1.05;;;;;;;;;;5030007;28;20365;-72
2022/10/13 09:01:37;;;;;;;0.60;0.60;;;13.10;99.90;;;;;;5029494;28;20116;-71
2022/10/13 09:04:24;;;;;;;2.40;0.88;;;12.20;99.90;;;;;;5029845;28;20459;-72
2022/10/13 09:07:10;;;;;;;3.63;1.42;;;12.50;99.90;;;;;;5030161;28;20100;-70
2022/10/13 09:09:40;;;;;;;0.60;0.60;;;12.50;99.90;;;;;;5015676;28;20029;-72
2022/10/13 09:12:06;;;;;;;0.40;0.40;;;12.30;99.90;;;;;;5030084;28;20507;-72
2022/10/13 09:14:35;;;;;;;1.70;1.60;;;12.60;99.90;;;;;;5030903;28;20029;-72
2022/10/13 09:17:16;;;;;;;1.65;1.55;;;12.40;99.90;;;;;;5028695;28;20124;-72
2022/10/13 09:19:43;;;;;;;0.70;0.70;;;12.50;99.90;;;;;;5029663;28;20100;-74
2022/10/13 09:22:25;;;;;;;1.52;1.42;;;12.50;99.90;;;;;;5030590;28;20026;-70
2022/10/13 09:25:16;;;;;;;1.38;1.30;;;12.40;99.90;;;;;;5030846;28;20029;-70
2022/10/13 09:27:48;;;;;;;1.77;0.88;;;12.50;99.90;;;;;;5028773;28;20033;-71
2022/10/13 09:30:24;;;;;;;2.08;1.70;;;12.50;99.90;;;;;;5029375;28;20038;-71
2022/10/13 09:32:54;;;;;;;2.15;1.08;;;12.40;99.90;;;;;;5031124;28;20022;-72
2022/10/13 09:35:22;;;;;;;2.42;1.33;;;12.30;99.90;;;;;;5027826;28;20060;-72
2022/10/13 09:38:13;;;;;;;0.88;0.82;;;12.30;99.90;;;;;;5028928;28;20068;-72
2022/10/13 09:40:54;;;;;;;0.60;0.60;;;12.30;99.90;;;;;;5029498;28;20033;-73
2022/10/13 09:43:27;;;;;;;1.65;1.15;;;12.40;99.90;;;;;;5031044;28;20495;-73
2022/10/13 09:45:53;;;;;;;2.40;2.05;;;12.40;99.90;;;;;;5029152;28;20053;-67
2022/10/13 09:48:24;;;;;;;1.45;1.35;;;12.50;99.90;;;;;;5029904;28;20160;-67
2022/10/13 09:50:52;;;;;;;4.35;2.92;;;12.60;99.90;;;;;;5028029;28;20029;-64
2022/10/13 09:53:38;;;;;;;1.33;1.23;;;12.60;99.90;;;;;;5028540;28;20029;-68
2022/10/13 09:56:29;;;;;;;0.73;0.70;;;12.70;99.90;;;;;;5029370;28;20025;-64
2022/10/13 09:59:25;;;;;;;11.48;1.25;;;12.70;99.90;;;;;;5029955;28;20107;-65
2022/10/13 10:01:53;;;;;;;1.70;1.60;;;12.80;99.90;;;;;;5029137;28;20037;-63
2022/10/13 10:04:24;;;;;;;1.63;1.52;;;12.80;99.90;;;;;;5028623;28;20029;-63
2022/10/13 10:06:50;;;;;;;2.72;1.13;;;12.80;99.90;;;;;;5029114;28;20033;-64
2022/10/13 10:09:37;;;;;;;5.55;2.72;;;12.90;99.90;;;;;;5030093;28;20438;-64
2022/10/13 10:12:04;;;;;;;1.20;1.17;;;12.80;99.90;;;;;;5028529;28;20053;-63
2022/10/13 10:14:36;;;;;;;1.35;1.25;;;12.90;99.90;;;;;;5028171;28;20520;-63
2022/10/13 10:17:43;;;;;;;1.48;1.38;;;12.90;99.90;;;;;;5030379;28;20091;-63
2022/10/13 10:20:27;;;;;;;0.45;0.45;;;12.90;99.90;;;;;;5029781;28;20040;-64
2022/10/13 10:23:21;;;;;;;1.60;1.50;;;12.90;99.90;;;;;;5027084;28;20649;-64
2022/10/13 10:26:14;;;;;;;1.23;1.13;;;12.90;99.90;;;;;;5028472;28;20088;-63
2022/10/13 10:29:01;;;;;;;1.33;1.20;;;12.90;99.90;;;;;;5029530;28;20029;-64
2022/10/13 10:31:52;;;;;;;0.75;0.75;;;12.80;99.90;;;;;;5029678;28;20051;-64
2022/10/13 10:34:30;;;;;;;0.80;0.80;;;12.80;99.90;;;;;;5015918;28;20120;-62
2022/10/13 10:37:12;;;;;;;1.88;1.65;;;12.80;99.90;;;;;;5029422;28;20104;-63
2022/10/13 10:40:02;;;;;;;0.68;0.68;;;12.80;99.90;;;;;;5029989;28;20500;-62
2022/10/13 10:42:43;;;;;;;0.88;0.82;;;12.80;99.90;;;;;;5030460;28;20040;-64
2022/10/13 10:45:25;;;;;;;0.47;0.47;;;12.90;99.90;;;;;;5030495;28;20362;-64
2022/10/13 10:48:03;;;;;;;1.85;1.08;;;12.90;99.90;;;;;;5028337;28;20120;-64
2022/10/13 10:50:30;;;;;;;0.85;0.85;;;13.00;99.90;;;;;;5027055;28;20041;-64
2022/10/13 10:53:07;;;;;;;3.58;2.15;;;13.00;99.90;;;;;;5029015;28;20136;-64
2022/10/13 10:55:51;;;;;;;0.90;0.90;;;13.00;99.90;;;;;;5029046;28;20036;-63
2022/10/13 10:58:33;;;;;;;0.75;0.75;;;13.00;99.90;;;;;;5019862;28;20029;-64
2022/10/13 11:01:21;;;;;;;0.40;0.40;;;13.00;99.90;;;;;;5029648;28;20492;-64
2022/10/13 11:04:16;;;;;;;1.52;1.27;;;13.00;99.90;;;;;;5029322;28;20120;-63
2022/10/13 11:06:42;;;;;;;0.82;0.82;;;13.00;99.90;;;;;;5012533;28;20727;-65
2022/10/13 11:09:10;;;;;;;0.37;0.37;;;13.00;99.90;;;;;;5028826;28;20026;-63
2022/10/13 11:11:41;;;;;;;2.38;1.10;;;13.00;99.90;;;;;;5030136;28;20032;-64
2022/10/13 11:14:06;;;;;;;0.60;0.60;;;13.00;99.90;;;;;;5028290;28;20067;-64
2022/10/13 11:16:37;;;;;;;0.50;0.50;;;13.00;99.90;;;;;;5030274;28;20508;-63
2022/10/13 11:19:35;;;;;;;0.30;0.30;;;13.00;99.90;;;;;;5029168;28;20495;-64
2022/10/13 11:22:01;;;;;;;0.93;0.90;;;12.90;99.90;;;;;;5028103;28;20095;-62
2022/10/13 11:24:32;;;;;;;2.63;1.60;;;12.90;99.90;;;;;;5028727;28;20473;-62
2022/10/13 11:27:34;;;;;;;2.80;1.95;;;13.00;99.90;;;;;;5030812;28;20060;-64
2022/10/13 11:30:00;;;;;;;0.60;0.60;;;13.00;99.90;;;;;;5020639;28;20583;-63
2022/10/13 11:32:39;;;;;;;0.40;0.40;;;13.00;99.90;;;;;;5029025;28;20022;-71
2022/10/13 11:35:05;;;;;;;0.75;0.75;;;13.00;99.90;;;;;;5029481;28;20061;-63
2022/10/13 11:38:01;;;;;;;3.43;1.83;;;13.00;99.90;;;;;;5031400;28;20064;-64
2022/10/13 11:41:08;;;;;;;0.35;0.35;;;13.00;99.90;;;;;;5029043;28;20091;-63
2022/10/13 11:43:46;;;;;;;0.70;0.68;;;13.00;99.90;;;;;;5029238;28;20690;-67
2022/10/13 11:46:22;;;;;;;0.30;0.30;;;13.00;99.90;;;;;;5028028;28;20076;-62
2022/10/13 11:49:07;;;;;;;0.60;0.60;;;13.00;99.90;;;;;;5029239;28;20033;-64
2022/10/13 11:52:00;;;;;;;1.30;1.23;;;13.00;99.90;;;;;;5024227;28;20053;-64
2022/10/13 11:54:38;;;;;;;0.47;0.47;;;13.00;99.90;;;;;;5026755;28;20086;-65
2022/10/13 11:57:21;;;;;;;0.43;0.43;;;12.90;99.90;;;;;;5028269;28;20071;-63
2022/10/13 11:59:51;;;;;;;2.17;2.08;;;13.00;99.90;;;;;;5006030;28;20041;-64
2022/10/13 12:02:17;;;;;;;0.32;0.32;;;12.90;99.90;;;;;;5021056;28;20500;-64
2022/10/13 12:04:57;;;;;;;2.47;1.70;;;12.90;99.90;;;;;;5023472;28;20084;-65
2022/10/13 12:07:24;;;;;;;0.70;0.70;;;12.80;99.90;;;;;;5025939;28;20042;-65
2022/10/13 12:09:52;;;;;;;1.10;0.95;;;12.80;99.90;;;;;;5026032;28;20025;-62
2022/10/13 12:12:20;;;;;;;0.40;0.40;;;12.80;99.90;;;;;;5027849;28;20064;-65
2022/10/13 12:14:51;;;;;;;0.30;0.30;;;12.80;99.90;;;;;;5027948;28;20045;-65
2022/10/13 12:17:25;;;;;;;0.45;0.45;;;12.80;99.90;;;;;;5028833;28;20127;-67
2022/10/13 12:19:57;;;;;;;0.38;0.38;;;12.80;99.90;;;;;;5032472;28;20167;-63
2022/10/13 12:22:23;;;;;;;4.25;1.30;;;12.80;99.90;;;;;;5030679;28;20026;-64
2022/10/13 12:25:05;;;;;;;4.13;0.80;;;12.80;99.90;;;;;;5030575;28;20064;-64
2022/10/13 12:27:41;;;;;;;1.20;1.15;;;12.80;99.90;;;;;;5029687;28;20532;-63
2022/10/13 12:30:22;;;;;;;0.98;0.90;;;12.80;99.90;;;;;;5031754;28;20026;-64
2022/10/13 12:32:50;;;;;;;0.47;0.47;;;12.90;99.90;;;;;;5028463;28;20033;-64
2022/10/13 12:35:24;;;;;;;1.85;1.75;;;12.90;99.90;;;;;;5028663;28;20456;-64
2022/10/13 12:37:51;;;;;;;12.00;1.50;;;12.90;99.90;;;;;;5030098;28;20026;-64
2022/10/13 12:40:17;;;;;;;;;;;12.90;99.90;;;;;;5031152;28;20069;-64
2022/10/13 12:42:44;;;;;;;0.77;0.77;;;12.90;99.90;;;;;;5029388;28;19948;-64
2022/10/13 12:45:14;;;;;;;0.63;0.63;;;12.90;99.90;;;;;;5031213;28;20033;-63
2022/10/13 12:47:43;;;;;;;0.95;0.90;;;12.90;99.90;;;;;;5028234;28;20124;-64
2022/10/13 12:50:22;;;;;;;1.33;1.23;;;13.00;99.90;;;;;;5029999;28;20038;-65
2022/10/13 12:52:49;;;;;;;2.10;0.70;;;13.00;99.90;;;;;;5026945;28;20385;-64
2022/10/13 12:55:18;;;;;;;1.13;1.13;;;13.00;99.90;;;;;;5027801;28;20041;-65
2022/10/13 12:57:48;;;;;;;1.95;1.20;;;13.10;99.90;;;;;;5026885;28;20028;-64
2022/10/13 13:00:26;;;;;;;1.02;1.02;;;13.10;99.90;;;;;;5029375;28;20419;-65
2022/10/13 13:02:59;;;;;;;0.70;0.70;;;13.00;99.90;;;;;;5030319;28;20469;-67
2022/10/13 13:05:44;;;;;;;1.48;1.38;;;13.00;99.90;;;;;;5031416;28;20469;-63
2022/10/13 13:08:30;;;;;;;8.38;1.58;;;13.00;99.90;;;;;;5028973;28;20388;-65
2022/10/13 13:11:05;;;;;;;1.10;1.05;;;12.90;99.90;;;;;;5029727;28;20037;-64
2022/10/13 13:13:31;;;;;;;4.10;2.42;;;13.00;99.90;;;;;;5030225;28;20049;-67
2022/10/13 13:16:17;;;;;;;1.77;1.67;;;12.90;99.90;;;;;;5031418;28;20069;-65
2022/10/13 13:18:44;;;;;;;0.35;0.35;;;12.90;99.90;;;;;;5027299;28;20045;-64
2022/10/13 13:21:18;;;;;;;0.43;0.43;;;12.80;99.90;;;;;;5028351;28;20037;-64
2022/10/13 13:23:46;;;;;;;0.40;0.40;;;12.80;99.90;;;;;;5029619;28;20109;-64
2022/10/13 13:26:13;;;;;;;7.57;2.28;;;12.80;99.90;;;;;;5027585;28;20025;-64